sensor_id;sensor_type;location;lat;lon;timestamp;temperature;humidity
51825;DHT22;37879;52.986;6.282;2023-08-24T00:00:42;15.20;99.90
51825;DHT22;37879;52.986;6.282;2023-08-24T00:03:08;15.20;99.90
51825;DHT22;37879;52.986;6.282;2023-08-24T00:05:35;15.10;99.90
51825;DHT22;37879;52.986;6.282;2023-08-24T00:08:07;15.10;99.90
51825;DHT22;37879;52.986;6.282;2023-08-24T00:10:34;15.00;99.90
51825;DHT22;37879;52.986;6.282;2023-08-24T00:13:00;15.00;99.90
51825;DHT22;37879;52.986;6.282;2023-08-24T00:15:26;14.90;99.90
51825;DHT22;37879;52.986;6.282;2023-08-24T00:17:52;15.00;99.90
51825;DHT22;37879;52.986;6.282;2023-08-24T00:20:17;15.00;99.90
51825;DHT22;37879;52.986;6.282;2023-08-24T00:22:43;15.00;99.90
51825;DHT22;37879;52.986;6.282;2023-08-24T00:25:09;14.90;99.90
51825;DHT22;37879;52.986;6.282;2023-08-24T00:27:35;14.90;99.90
51825;DHT22;37879;52.986;6.282;2023-08-24T00:30:05;14.90;99.90
51825;DHT22;37879;52.986;6.282;2023-08-24T00:32:35;14.90;99.90
51825;DHT22;37879;52.986;6.282;2023-08-24T00:35:04;14.90;99.90
51825;DHT22;37879;52.986;6.282;2023-08-24T00:37:34;14.90;99.90
51825;DHT22;37879;52.986;6.282;2023-08-24T00:40:06;14.90;99.90
51825;DHT22;37879;52.986;6.282;2023-08-24T00:42:42;15.00;99.90
51825;DHT22;37879;52.986;6.282;2023-08-24T00:45:12;15.00;99.90
51825;DHT22;37879;52.986;6.282;2023-08-24T00:47:46;15.10;99.90
51825;DHT22;37879;52.986;6.282;2023-08-24T00:50:12;15.10;99.90
51825;DHT22;37879;52.986;6.282;2023-08-24T00:52:40;15.10;99.90
51825;DHT22;37879;52.986;6.282;2023-08-24T00:55:07;15.10;99.90
51825;DHT22;37879;52.986;6.282;2023-08-24T00:57:34;15.10;99.90
51825;DHT22;37879;52.986;6.282;2023-08-24T01:00:05;15.20;99.90
51825;DHT22;37879;52.986;6.282;2023-08-24T01:02:32;15.20;99.90
51825;DHT22;37879;52.986;6.282;2023-08-24T01:04:58;15.20;99.90
51825;DHT22;37879;52.986;6.282;2023-08-24T01:07:24;15.20;99.90
51825;DHT22;37879;52.986;6.282;2023-08-24T01:09:50;15.30;99.90
51825;DHT22;37879;52.986;6.282;2023-08-24T01:15:13;15.30;99.90
51825;DHT22;37879;52.986;6.282;2023-08-24T01:17:43;15.30;99.90
51825;DHT22;37879;52.986;6.282;2023-08-24T01:20:10;15.30;99.90
51825;DHT22;37879;52.986;6.282;2023-08-24T01:22:43;15.30;99.90
51825;DHT22;37879;52.986;6.282;2023-08-24T01:25:17;15.40;99.90
51825;DHT22;37879;52.986;6.282;2023-08-24T01:27:47;15.40;99.90
51825;DHT22;37879;52.986;6.282;2023-08-24T01:30:13;15.40;99.90
51825;DHT22;37879;52.986;6.282;2023-08-24T01:32:40;15.40;99.90
51825;DHT22;37879;52.986;6.282;2023-08-24T01:35:09;15.50;99.90
51825;DHT22;37879;52.986;6.282;2023-08-24T01:37:35;15.50;99.90
51825;DHT22;37879;52.986;6.282;2023-08-24T01:40:17;15.50;99.90
51825;DHT22;37879;52.986;6.282;2023-08-24T01:42:59;15.60;99.90
51825;DHT22;37879;52.986;6.282;2023-08-24T01:45:29;15.60;99.90
51825;DHT22;37879;52.986;6.282;2023-08-24T01:47:55;15.70;99.90
51825;DHT22;37879;52.986;6.282;2023-08-24T01:50:22;15.70;99.90
51825;DHT22;37879;52.986;6.282;2023-08-24T01:52:49;15.70;99.90
51825;DHT22;37879;52.986;6.282;2023-08-24T01:55:18;15.80;99.90
51825;DHT22;37879;52.986;6.282;2023-08-24T01:57:43;15.80;99.90
51825;DHT22;37879;52.986;6.282;2023-08-24T02:00:09;15.80;99.90
51825;DHT22;37879;52.986;6.282;2023-08-24T02:02:36;15.80;99.90
51825;DHT22;37879;52.986;6.282;2023-08-24T02:05:02;15.70;99.90
51825;DHT22;37879;52.986;6.282;2023-08-24T02:07:29;15.80;99.90
51825;DHT22;37879;52.986;6.282;2023-08-24T02:09:54;15.80;99.90
51825;DHT22;37879;52.986;6.282;2023-08-24T02:12:20;15.80;99.90
51825;DHT22;37879;52.986;6.282;2023-08-24T02:14:46;15.70;99.90
51825;DHT22;37879;52.986;6.282;2023-08-24T02:17:11;15.70;99.90
51825;DHT22;37879;52.986;6.282;2023-08-24T02:19:37;15.70;99.90
51825;DHT22;37879;52.986;6.282;2023-08-24T02:22:03;15.70;99.90
51825;DHT22;37879;52.986;6.282;2023-08-24T02:24:28;15.70;99.90
51825;DHT22;37879;52.986;6.282;2023-08-24T02:26:54;15.70;99.90
51825;DHT22;37879;52.986;6.282;2023-08-24T02:29:20;15.70;99.90
51825;DHT22;37879;52.986;6.282;2023-08-24T02:31:46;15.60;99.90
51825;DHT22;37879;52.986;6.282;2023-08-24T02:34:11;15.60;99.90
51825;DHT22;37879;52.986;6.282;2023-08-24T02:36:37;15.60;99.90
51825;DHT22;37879;52.986;6.282;2023-08-24T02:39:03;15.50;99.90
51825;DHT22;37879;52.986;6.282;2023-08-24T02:41:28;15.60;99.90
51825;DHT22;37879;52.986;6.282;2023-08-24T02:43:54;15.50;99.90
51825;DHT22;37879;52.986;6.282;2023-08-24T02:46:20;15.50;99.90
51825;DHT22;37879;52.986;6.282;2023-08-24T02:48:46;15.50;99.90
51825;DHT22;37879;52.986;6.282;2023-08-24T02:51:13;15.40;99.90
51825;DHT22;37879;52.986;6.282;2023-08-24T02:53:39;15.50;99.90
51825;DHT22;37879;52.986;6.282;2023-08-24T02:56:05;15.40;99.90
51825;DHT22;37879;52.986;6.282;2023-08-24T02:58:31;15.40;99.90
51825;DHT22;37879;52.986;6.282;2023-08-24T03:00:57;15.40;99.90
51825;DHT22;37879;52.986;6.282;2023-08-24T03:03:24;15.40;99.90
51825;DHT22;37879;52.986;6.282;2023-08-24T03:08:23;15.30;99.90
51825;DHT22;37879;52.986;6.282;2023-08-24T03:10:49;15.30;99.90
51825;DHT22;37879;52.986;6.282;2023-08-24T03:13:15;15.30;99.90
51825;DHT22;37879;52.986;6.282;2023-08-24T03:15:40;15.30;99.90
51825;DHT22;37879;52.986;6.282;2023-08-24T03:18:06;15.30;99.90
51825;DHT22;37879;52.986;6.282;2023-08-24T03:20:32;15.20;99.90
51825;DHT22;37879;52.986;6.282;2023-08-24T03:22:57;15.30;99.90
51825;DHT22;37879;52.986;6.282;2023-08-24T03:25:23;15.30;99.90
51825;DHT22;37879;52.986;6.282;2023-08-24T03:27:49;15.20;99.90
51825;DHT22;37879;52.986;6.282;2023-08-24T03:30:15;15.20;99.90
51825;DHT22;37879;52.986;6.282;2023-08-24T03:32:41;15.20;99.90
51825;DHT22;37879;52.986;6.282;2023-08-24T03:35:07;15.20;99.90
51825;DHT22;37879;52.986;6.282;2023-08-24T03:37:33;15.20;99.90
51825;DHT22;37879;52.986;6.282;2023-08-24T03:39:59;15.10;99.90
51825;DHT22;37879;52.986;6.282;2023-08-24T03:42:25;15.10;99.90
51825;DHT22;37879;52.986;6.282;2023-08-24T03:44:50;15.10;99.90
51825;DHT22;37879;52.986;6.282;2023-08-24T03:47:16;15.10;99.90
51825;DHT22;37879;52.986;6.282;2023-08-24T03:49:43;15.10;99.90
51825;DHT22;37879;52.986;6.282;2023-08-24T03:52:09;15.10;99.90
51825;DHT22;37879;52.986;6.282;2023-08-24T03:54:34;15.10;99.90
51825;DHT22;37879;52.986;6.282;2023-08-24T03:57:01;15.00;99.90
51825;DHT22;37879;52.986;6.282;2023-08-24T03:59:27;15.00;99.90
51825;DHT22;37879;52.986;6.282;2023-08-24T04:01:52;15.00;99.90
51825;DHT22;37879;52.986;6.282;2023-08-24T04:04:18;15.00;99.90
51825;DHT22;37879;52.986;6.282;2023-08-24T04:06:44;14.90;99.90
51825;DHT22;37879;52.986;6.282;2023-08-24T04:09:09;14.90;99.90
51825;DHT22;37879;52.986;6.282;2023-08-24T04:11:36;14.90;99.90
51825;DHT22;37879;52.986;6.282;2023-08-24T04:14:01;14.80;99.90
51825;DHT22;37879;52.986;6.282;2023-08-24T04:16:27;14.80;99.90
51825;DHT22;37879;52.986;6.282;2023-08-24T04:18:53;14.80;99.90
51825;DHT22;37879;52.986;6.282;2023-08-24T04:21:18;14.80;99.90
51825;DHT22;37879;52.986;6.282;2023-08-24T04:23:44;14.80;99.90
51825;DHT22;37879;52.986;6.282;2023-08-24T04:26:14;14.80;99.90
51825;DHT22;37879;52.986;6.282;2023-08-24T04:28:39;14.80;99.90
51825;DHT22;37879;52.986;6.282;2023-08-24T04:31:05;14.80;99.90
51825;DHT22;37879;52.986;6.282;2023-08-24T04:33:31;14.80;99.90
51825;DHT22;37879;52.986;6.282;2023-08-24T04:35:57;14.80;99.90
51825;DHT22;37879;52.986;6.282;2023-08-24T04:38:23;14.80;99.90
51825;DHT22;37879;52.986;6.282;2023-08-24T04:40:51;14.80;99.90
51825;DHT22;37879;52.986;6.282;2023-08-24T04:43:18;14.90;99.90
51825;DHT22;37879;52.986;6.282;2023-08-24T04:45:49;14.90;99.90
51825;DHT22;37879;52.986;6.282;2023-08-24T04:48:21;14.90;99.90
51825;DHT22;37879;52.986;6.282;2023-08-24T04:50:47;14.90;99.90
51825;DHT22;37879;52.986;6.282;2023-08-24T04:53:16;15.00;99.90
51825;DHT22;37879;52.986;6.282;2023-08-24T04:55:42;15.00;99.90
51825;DHT22;37879;52.986;6.282;2023-08-24T04:58:08;14.90;99.90
51825;DHT22;37879;52.986;6.282;2023-08-24T05:00:35;15.10;99.90
51825;DHT22;37879;52.986;6.282;2023-08-24T05:03:01;15.10;99.90
51825;DHT22;37879;52.986;6.282;2023-08-24T05:05:29;15.10;99.90
51825;DHT22;37879;52.986;6.282;2023-08-24T05:07:55;15.10;99.90
51825;DHT22;37879;52.986;6.282;2023-08-24T05:10:21;15.20;99.90
51825;DHT22;37879;52.986;6.282;2023-08-24T05:12:47;15.10;99.90
51825;DHT22;37879;52.986;6.282;2023-08-24T05:15:12;15.10;99.90
51825;DHT22;37879;52.986;6.282;2023-08-24T05:17:39;15.10;99.90
51825;DHT22;37879;52.986;6.282;2023-08-24T05:20:06;15.20;99.90
51825;DHT22;37879;52.986;6.282;2023-08-24T05:22:33;15.20;99.90
51825;DHT22;37879;52.986;6.282;2023-08-24T05:24:59;15.20;99.90
51825;DHT22;37879;52.986;6.282;2023-08-24T05:27:25;15.20;99.90
51825;DHT22;37879;52.986;6.282;2023-08-24T05:29:50;15.30;99.90
51825;DHT22;37879;52.986;6.282;2023-08-24T05:32:16;15.20;99.90
51825;DHT22;37879;52.986;6.282;2023-08-24T05:34:42;15.30;99.90
51825;DHT22;37879;52.986;6.282;2023-08-24T05:37:07;15.30;99.90
51825;DHT22;37879;52.986;6.282;2023-08-24T05:39:33;15.40;99.90
51825;DHT22;37879;52.986;6.282;2023-08-24T05:41:59;15.40;99.90
51825;DHT22;37879;52.986;6.282;2023-08-24T05:44:24;15.40;99.90
51825;DHT22;37879;52.986;6.282;2023-08-24T05:46:50;15.50;99.90
51825;DHT22;37879;52.986;6.282;2023-08-24T05:49:15;15.60;99.90
51825;DHT22;37879;52.986;6.282;2023-08-24T05:51:41;15.60;99.90
51825;DHT22;37879;52.986;6.282;2023-08-24T05:54:07;15.70;99.90
51825;DHT22;37879;52.986;6.282;2023-08-24T05:56:32;15.70;99.90
51825;DHT22;37879;52.986;6.282;2023-08-24T05:58:58;15.80;99.90
51825;DHT22;37879;52.986;6.282;2023-08-24T06:01:24;15.80;99.90
51825;DHT22;37879;52.986;6.282;2023-08-24T06:03:50;15.90;99.90
51825;DHT22;37879;52.986;6.282;2023-08-24T06:06:16;16.00;99.90
51825;DHT22;37879;52.986;6.282;2023-08-24T06:08:42;16.00;99.90
51825;DHT22;37879;52.986;6.282;2023-08-24T06:11:09;16.10;99.90
51825;DHT22;37879;52.986;6.282;2023-08-24T06:13:34;16.20;99.90
51825;DHT22;37879;52.986;6.282;2023-08-24T06:16:00;16.20;99.90
51825;DHT22;37879;52.986;6.282;2023-08-24T06:18:27;16.30;99.90
51825;DHT22;37879;52.986;6.282;2023-08-24T06:20:53;16.40;99.90
51825;DHT22;37879;52.986;6.282;2023-08-24T06:23:19;16.50;99.90
51825;DHT22;37879;52.986;6.282;2023-08-24T06:25:46;16.60;99.90
51825;DHT22;37879;52.986;6.282;2023-08-24T06:28:12;16.60;99.90
51825;DHT22;37879;52.986;6.282;2023-08-24T06:30:41;16.70;99.90
51825;DHT22;37879;52.986;6.282;2023-08-24T06:33:08;16.80;99.90
51825;DHT22;37879;52.986;6.282;2023-08-24T06:35:36;16.90;99.90
51825;DHT22;37879;52.986;6.282;2023-08-24T06:38:03;17.00;99.90
51825;DHT22;37879;52.986;6.282;2023-08-24T06:40:29;17.00;99.90
51825;DHT22;37879;52.986;6.282;2023-08-24T06:42:56;17.10;99.90
51825;DHT22;37879;52.986;6.282;2023-08-24T06:45:22;17.20;99.90
51825;DHT22;37879;52.986;6.282;2023-08-24T06:47:48;17.30;99.90
51825;DHT22;37879;52.986;6.282;2023-08-24T06:50:14;17.40;99.90
51825;DHT22;37879;52.986;6.282;2023-08-24T06:52:41;17.40;99.90
51825;DHT22;37879;52.986;6.282;2023-08-24T06:55:09;17.50;99.90
51825;DHT22;37879;52.986;6.282;2023-08-24T06:57:35;17.50;99.90
51825;DHT22;37879;52.986;6.282;2023-08-24T07:00:01;17.60;99.90
51825;DHT22;37879;52.986;6.282;2023-08-24T07:02:27;17.70;99.90
51825;DHT22;37879;52.986;6.282;2023-08-24T07:04:52;17.80;99.90
51825;DHT22;37879;52.986;6.282;2023-08-24T07:07:18;18.00;99.90
51825;DHT22;37879;52.986;6.282;2023-08-24T07:09:44;18.10;99.90
51825;DHT22;37879;52.986;6.282;2023-08-24T07:12:10;18.20;99.90
51825;DHT22;37879;52.986;6.282;2023-08-24T07:14:36;18.20;99.90
51825;DHT22;37879;52.986;6.282;2023-08-24T07:17:02;18.20;99.90
51825;DHT22;37879;52.986;6.282;2023-08-24T07:19:28;18.30;99.90
51825;DHT22;37879;52.986;6.282;2023-08-24T07:21:53;18.30;99.90
51825;DHT22;37879;52.986;6.282;2023-08-24T07:24:19;18.30;99.90
51825;DHT22;37879;52.986;6.282;2023-08-24T07:26:46;18.50;99.90
51825;DHT22;37879;52.986;6.282;2023-08-24T07:29:12;18.50;99.90
51825;DHT22;37879;52.986;6.282;2023-08-24T07:31:38;18.50;99.90
51825;DHT22;37879;52.986;6.282;2023-08-24T07:34:03;18.60;99.90
51825;DHT22;37879;52.986;6.282;2023-08-24T07:36:32;18.70;99.90
51825;DHT22;37879;52.986;6.282;2023-08-24T07:38:58;18.80;99.90
51825;DHT22;37879;52.986;6.282;2023-08-24T07:41:23;18.90;99.90
51825;DHT22;37879;52.986;6.282;2023-08-24T07:43:49;19.00;99.90
51825;DHT22;37879;52.986;6.282;2023-08-24T07:46:14;19.10;99.90
51825;DHT22;37879;52.986;6.282;2023-08-24T07:48:40;19.20;99.90
51825;DHT22;37879;52.986;6.282;2023-08-24T07:51:07;19.30;99.90
51825;DHT22;37879;52.986;6.282;2023-08-24T07:53:33;19.40;99.90
51825;DHT22;37879;52.986;6.282;2023-08-24T07:56:00;19.50;99.90
51825;DHT22;37879;52.986;6.282;2023-08-24T07:58:27;19.60;99.90
51825;DHT22;37879;52.986;6.282;2023-08-24T08:00:53;19.70;99.90
51825;DHT22;37879;52.986;6.282;2023-08-24T08:03:19;19.80;99.90
51825;DHT22;37879;52.986;6.282;2023-08-24T08:05:46;19.80;99.90
51825;DHT22;37879;52.986;6.282;2023-08-24T08:08:13;19.90;99.90
51825;DHT22;37879;52.986;6.282;2023-08-24T08:10:39;19.90;99.90
51825;DHT22;37879;52.986;6.282;2023-08-24T08:13:04;19.90;99.90
51825;DHT22;37879;52.986;6.282;2023-08-24T08:15:30;20.00;99.90
51825;DHT22;37879;52.986;6.282;2023-08-24T08:17:56;20.10;99.90
51825;DHT22;37879;52.986;6.282;2023-08-24T08:20:21;20.10;99.90
51825;DHT22;37879;52.986;6.282;2023-08-24T08:22:47;20.10;99.90
51825;DHT22;37879;52.986;6.282;2023-08-24T08:25:13;20.20;99.90
51825;DHT22;37879;52.986;6.282;2023-08-24T08:27:38;20.30;99.90
51825;DHT22;37879;52.986;6.282;2023-08-24T08:30:05;20.30;99.90
51825;DHT22;37879;52.986;6.282;2023-08-24T08:32:31;20.50;99.90
51825;DHT22;37879;52.986;6.282;2023-08-24T08:34:57;20.60;99.90
51825;DHT22;37879;52.986;6.282;2023-08-24T08:37:24;20.60;99.90
51825;DHT22;37879;52.986;6.282;2023-08-24T08:39:49;20.60;99.90
51825;DHT22;37879;52.986;6.282;2023-08-24T08:42:15;20.60;99.90
51825;DHT22;37879;52.986;6.282;2023-08-24T08:44:41;20.60;99.90
51825;DHT22;37879;52.986;6.282;2023-08-24T08:47:10;20.80;99.90
51825;DHT22;37879;52.986;6.282;2023-08-24T08:49:42;20.80;99.90
51825;DHT22;37879;52.986;6.282;2023-08-24T08:52:09;20.90;99.90
51825;DHT22;37879;52.986;6.282;2023-08-24T08:54:35;21.00;99.90
51825;DHT22;37879;52.986;6.282;2023-08-24T08:57:01;21.10;99.90
51825;DHT22;37879;52.986;6.282;2023-08-24T08:59:28;21.30;99.90
51825;DHT22;37879;52.986;6.282;2023-08-24T09:01:56;21.40;99.90
51825;DHT22;37879;52.986;6.282;2023-08-24T09:04:24;21.50;99.90
51825;DHT22;37879;52.986;6.282;2023-08-24T09:06:50;21.60;99.90
51825;DHT22;37879;52.986;6.282;2023-08-24T09:09:16;21.70;99.90
51825;DHT22;37879;52.986;6.282;2023-08-24T09:11:42;21.70;99.90
51825;DHT22;37879;52.986;6.282;2023-08-24T09:14:12;21.70;99.90
51825;DHT22;37879;52.986;6.282;2023-08-24T09:16:39;21.80;99.90
51825;DHT22;37879;52.986;6.282;2023-08-24T09:19:05;21.80;99.90
51825;DHT22;37879;52.986;6.282;2023-08-24T09:21:36;21.80;99.90
51825;DHT22;37879;52.986;6.282;2023-08-24T09:24:03;21.80;99.90
51825;DHT22;37879;52.986;6.282;2023-08-24T09:26:36;21.80;99.90
51825;DHT22;37879;52.986;6.282;2023-08-24T09:29:13;21.80;99.90
51825;DHT22;37879;52.986;6.282;2023-08-24T09:31:40;21.80;99.90
51825;DHT22;37879;52.986;6.282;2023-08-24T09:34:06;21.80;99.90
51825;DHT22;37879;52.986;6.282;2023-08-24T09:36:33;21.80;99.90
51825;DHT22;37879;52.986;6.282;2023-08-24T09:39:00;21.80;99.90
51825;DHT22;37879;52.986;6.282;2023-08-24T09:41:46;21.80;99.90
51825;DHT22;37879;52.986;6.282;2023-08-24T09:44:12;21.80;99.90
51825;DHT22;37879;52.986;6.282;2023-08-24T09:46:39;21.80;99.90
51825;DHT22;37879;52.986;6.282;2023-08-24T09:49:05;21.80;99.90
51825;DHT22;37879;52.986;6.282;2023-08-24T09:51:33;21.80;99.90
51825;DHT22;37879;52.986;6.282;2023-08-24T09:54:05;21.70;99.90
51825;DHT22;37879;52.986;6.282;2023-08-24T09:56:38;21.70;99.90
51825;DHT22;37879;52.986;6.282;2023-08-24T09:59:12;21.60;99.90
51825;DHT22;37879;52.986;6.282;2023-08-24T10:01:44;21.60;99.90
51825;DHT22;37879;52.986;6.282;2023-08-24T10:04:13;21.60;99.90
51825;DHT22;37879;52.986;6.282;2023-08-24T10:06:39;21.60;99.90
51825;DHT22;37879;52.986;6.282;2023-08-24T10:09:22;21.50;99.90
51825;DHT22;37879;52.986;6.282;2023-08-24T10:11:55;21.50;99.90
51825;DHT22;37879;52.986;6.282;2023-08-24T10:14:31;21.50;99.90
51825;DHT22;37879;52.986;6.282;2023-08-24T10:16:58;21.50;99.90
51825;DHT22;37879;52.986;6.282;2023-08-24T10:19:24;21.50;99.90
51825;DHT22;37879;52.986;6.282;2023-08-24T10:21:53;21.40;99.90
51825;DHT22;37879;52.986;6.282;2023-08-24T10:24:19;21.40;99.90
51825;DHT22;37879;52.986;6.282;2023-08-24T10:26:46;21.30;99.90
51825;DHT22;37879;52.986;6.282;2023-08-24T10:29:13;21.30;99.90
51825;DHT22;37879;52.986;6.282;2023-08-24T10:31:41;21.10;99.90
51825;DHT22;37879;52.986;6.282;2023-08-24T10:34:07;21.20;99.90
51825;DHT22;37879;52.986;6.282;2023-08-24T10:36:34;21.10;99.90
51825;DHT22;37879;52.986;6.282;2023-08-24T10:39:02;21.10;99.90
51825;DHT22;37879;52.986;6.282;2023-08-24T10:41:48;21.10;99.90
51825;DHT22;37879;52.986;6.282;2023-08-24T10:44:22;21.00;99.90
51825;DHT22;37879;52.986;6.282;2023-08-24T10:47:11;21.10;99.90
51825;DHT22;37879;52.986;6.282;2023-08-24T10:49:45;21.00;99.90
51825;DHT22;37879;52.986;6.282;2023-08-24T10:52:32;21.10;99.90
51825;DHT22;37879;52.986;6.282;2023-08-24T10:55:03;21.10;99.90
51825;DHT22;37879;52.986;6.282;2023-08-24T10:57:39;21.10;99.90
51825;DHT22;37879;52.986;6.282;2023-08-24T11:00:11;21.10;99.90
51825;DHT22;37879;52.986;6.282;2023-08-24T11:05:23;21.10;99.90
51825;DHT22;37879;52.986;6.282;2023-08-24T11:08:04;21.10;99.90
51825;DHT22;37879;52.986;6.282;2023-08-24T11:10:45;21.00;99.90
51825;DHT22;37879;52.986;6.282;2023-08-24T11:13:14;21.00;99.90
51825;DHT22;37879;52.986;6.282;2023-08-24T11:15:47;21.00;99.90
51825;DHT22;37879;52.986;6.282;2023-08-24T11:23:19;21.10;99.90
51825;DHT22;37879;52.986;6.282;2023-08-24T11:25:46;21.20;99.90
51825;DHT22;37879;52.986;6.282;2023-08-24T11:28:17;21.30;99.90
51825;DHT22;37879;52.986;6.282;2023-08-24T11:30:43;21.30;99.90
51825;DHT22;37879;52.986;6.282;2023-08-24T11:33:11;21.40;99.90
51825;DHT22;37879;52.986;6.282;2023-08-24T11:35:44;21.40;99.90
51825;DHT22;37879;52.986;6.282;2023-08-24T11:38:10;21.40;99.90
51825;DHT22;37879;52.986;6.282;2023-08-24T11:40:37;21.50;99.90
51825;DHT22;37879;52.986;6.282;2023-08-24T11:43:03;21.50;99.90
51825;DHT22;37879;52.986;6.282;2023-08-24T11:45:33;21.50;99.90
51825;DHT22;37879;52.986;6.282;2023-08-24T11:48:00;21.60;99.90
51825;DHT22;37879;52.986;6.282;2023-08-24T11:50:30;21.60;99.90
51825;DHT22;37879;52.986;6.282;2023-08-24T11:52:56;21.70;99.90
51825;DHT22;37879;52.986;6.282;2023-08-24T11:55:25;21.70;99.90
51825;DHT22;37879;52.986;6.282;2023-08-24T11:57:51;21.80;99.90
51825;DHT22;37879;52.986;6.282;2023-08-24T12:00:20;21.80;99.90
51825;DHT22;37879;52.986;6.282;2023-08-24T12:02:47;21.90;99.90
51825;DHT22;37879;52.986;6.282;2023-08-24T12:05:24;21.90;99.90
51825;DHT22;37879;52.986;6.282;2023-08-24T12:07:52;21.90;99.90
51825;DHT22;37879;52.986;6.282;2023-08-24T12:10:17;21.90;99.90
51825;DHT22;37879;52.986;6.282;2023-08-24T12:12:43;21.90;99.90
51825;DHT22;37879;52.986;6.282;2023-08-24T12:15:18;21.90;99.90
51825;DHT22;37879;52.986;6.282;2023-08-24T12:17:46;21.90;99.90
51825;DHT22;37879;52.986;6.282;2023-08-24T12:20:22;22.00;99.90
51825;DHT22;37879;52.986;6.282;2023-08-24T12:22:52;22.00;99.90
51825;DHT22;37879;52.986;6.282;2023-08-24T12:25:21;22.10;99.90
51825;DHT22;37879;52.986;6.282;2023-08-24T12:27:47;22.20;99.90
51825;DHT22;37879;52.986;6.282;2023-08-24T12:30:13;22.30;99.90
51825;DHT22;37879;52.986;6.282;2023-08-24T12:32:43;22.40;99.90
51825;DHT22;37879;52.986;6.282;2023-08-24T12:35:09;22.40;99.90
51825;DHT22;37879;52.986;6.282;2023-08-24T12:37:36;22.50;99.90
51825;DHT22;37879;52.986;6.282;2023-08-24T12:40:03;22.50;99.90
51825;DHT22;37879;52.986;6.282;2023-08-24T12:42:31;22.60;99.90
51825;DHT22;37879;52.986;6.282;2023-08-24T12:44:57;22.60;99.90
51825;DHT22;37879;52.986;6.282;2023-08-24T12:47:22;22.70;99.90
51825;DHT22;37879;52.986;6.282;2023-08-24T12:49:48;22.60;99.90
51825;DHT22;37879;52.986;6.282;2023-08-24T12:52:16;22.50;99.90
51825;DHT22;37879;52.986;6.282;2023-08-24T12:54:42;22.50;99.90
51825;DHT22;37879;52.986;6.282;2023-08-24T12:57:08;22.50;99.90
51825;DHT22;37879;52.986;6.282;2023-08-24T12:59:33;22.40;99.90
51825;DHT22;37879;52.986;6.282;2023-08-24T13:01:59;22.30;99.90
51825;DHT22;37879;52.986;6.282;2023-08-24T13:04:25;22.30;99.90
51825;DHT22;37879;52.986;6.282;2023-08-24T13:06:53;22.20;99.90
51825;DHT22;37879;52.986;6.282;2023-08-24T13:09:19;22.20;99.90
51825;DHT22;37879;52.986;6.282;2023-08-24T13:11:44;22.10;99.90
51825;DHT22;37879;52.986;6.282;2023-08-24T13:14:10;22.10;99.90
51825;DHT22;37879;52.986;6.282;2023-08-24T13:16:36;22.10;99.90
51825;DHT22;37879;52.986;6.282;2023-08-24T13:19:01;22.10;99.90
51825;DHT22;37879;52.986;6.282;2023-08-24T13:21:27;22.20;99.90
51825;DHT22;37879;52.986;6.282;2023-08-24T13:23:53;22.30;99.90
51825;DHT22;37879;52.986;6.282;2023-08-24T13:26:20;22.30;99.90
51825;DHT22;37879;52.986;6.282;2023-08-24T13:28:49;22.30;99.90
51825;DHT22;37879;52.986;6.282;2023-08-24T13:31:15;22.30;99.90
51825;DHT22;37879;52.986;6.282;2023-08-24T13:33:41;22.40;99.90
51825;DHT22;37879;52.986;6.282;2023-08-24T13:36:07;22.50;99.90
51825;DHT22;37879;52.986;6.282;2023-08-24T13:38:32;22.50;99.90
51825;DHT22;37879;52.986;6.282;2023-08-24T13:40:58;22.50;99.90
51825;DHT22;37879;52.986;6.282;2023-08-24T13:43:24;22.80;99.90
51825;DHT22;37879;52.986;6.282;2023-08-24T13:45:49;22.70;99.90
51825;DHT22;37879;52.986;6.282;2023-08-24T13:48:15;22.80;99.90
51825;DHT22;37879;52.986;6.282;2023-08-24T13:50:42;22.90;99.90
51825;DHT22;37879;52.986;6.282;2023-08-24T13:53:14;22.90;99.90
51825;DHT22;37879;52.986;6.282;2023-08-24T13:55:40;22.90;99.90
51825;DHT22;37879;52.986;6.282;2023-08-24T13:58:06;23.00;99.90
51825;DHT22;37879;52.986;6.282;2023-08-24T14:00:31;23.00;99.90
51825;DHT22;37879;52.986;6.282;2023-08-24T14:02:57;22.90;99.90
51825;DHT22;37879;52.986;6.282;2023-08-24T14:05:23;23.00;99.90
51825;DHT22;37879;52.986;6.282;2023-08-24T14:07:48;23.00;99.90
51825;DHT22;37879;52.986;6.282;2023-08-24T14:10:14;22.90;99.90
51825;DHT22;37879;52.986;6.282;2023-08-24T14:12:40;22.80;99.90
51825;DHT22;37879;52.986;6.282;2023-08-24T14:15:06;22.80;99.90
51825;DHT22;37879;52.986;6.282;2023-08-24T14:17:32;22.70;99.90
51825;DHT22;37879;52.986;6.282;2023-08-24T14:19:58;22.60;99.90
51825;DHT22;37879;52.986;6.282;2023-08-24T14:22:25;22.50;99.90
51825;DHT22;37879;52.986;6.282;2023-08-24T14:24:51;22.40;99.90
51825;DHT22;37879;52.986;6.282;2023-08-24T14:27:17;22.40;99.90
51825;DHT22;37879;52.986;6.282;2023-08-24T14:29:42;22.40;99.90
51825;DHT22;37879;52.986;6.282;2023-08-24T14:32:08;22.40;99.90
51825;DHT22;37879;52.986;6.282;2023-08-24T14:34:34;22.40;99.90
51825;DHT22;37879;52.986;6.282;2023-08-24T14:36:59;22.40;99.90
51825;DHT22;37879;52.986;6.282;2023-08-24T14:39:25;22.40;99.90
51825;DHT22;37879;52.986;6.282;2023-08-24T14:41:51;22.30;99.90
51825;DHT22;37879;52.986;6.282;2023-08-24T14:44:16;22.30;99.90
51825;DHT22;37879;52.986;6.282;2023-08-24T14:46:42;22.30;99.90
51825;DHT22;37879;52.986;6.282;2023-08-24T14:49:07;22.30;99.90
51825;DHT22;37879;52.986;6.282;2023-08-24T14:51:34;22.30;99.90
51825;DHT22;37879;52.986;6.282;2023-08-24T14:53:59;22.20;99.90
51825;DHT22;37879;52.986;6.282;2023-08-24T14:56:25;22.20;99.90
51825;DHT22;37879;52.986;6.282;2023-08-24T14:58:51;22.20;99.90
51825;DHT22;37879;52.986;6.282;2023-08-24T15:01:16;22.20;99.90
51825;DHT22;37879;52.986;6.282;2023-08-24T15:03:42;22.20;99.90
51825;DHT22;37879;52.986;6.282;2023-08-24T15:06:08;22.20;99.90
51825;DHT22;37879;52.986;6.282;2023-08-24T15:08:35;22.30;99.90
51825;DHT22;37879;52.986;6.282;2023-08-24T15:11:02;22.30;99.90
51825;DHT22;37879;52.986;6.282;2023-08-24T15:13:29;22.30;99.90
51825;DHT22;37879;52.986;6.282;2023-08-24T15:15:56;22.40;99.90
51825;DHT22;37879;52.986;6.282;2023-08-24T15:18:23;22.40;99.90
51825;DHT22;37879;52.986;6.282;2023-08-24T15:20:48;22.40;99.90
51825;DHT22;37879;52.986;6.282;2023-08-24T15:23:28;22.40;99.90
51825;DHT22;37879;52.986;6.282;2023-08-24T15:25:55;22.40;99.90
51825;DHT22;37879;52.986;6.282;2023-08-24T15:28:21;22.30;99.90
51825;DHT22;37879;52.986;6.282;2023-08-24T15:30:47;22.30;99.90
51825;DHT22;37879;52.986;6.282;2023-08-24T15:33:12;22.40;99.90
51825;DHT22;37879;52.986;6.282;2023-08-24T15:35:41;22.30;99.90
51825;DHT22;37879;52.986;6.282;2023-08-24T15:38:09;22.30;99.90
51825;DHT22;37879;52.986;6.282;2023-08-24T15:40:35;22.30;99.90
51825;DHT22;37879;52.986;6.282;2023-08-24T15:43:01;22.30;99.90